sensor_id;sensor_type;location;lat;lon;timestamp;pressure;altitude;pressure_sealevel;temperature;humidity
34205;BME280;20471;49.680;20.074;2023-03-23T00:01:18;96835.84;;;8.43;65.56
34205;BME280;20471;49.680;20.074;2023-03-23T00:03:47;96836.25;;;8.43;65.35
34205;BME280;20471;49.680;20.074;2023-03-23T00:06:16;96834.97;;;8.41;65.41
34205;BME280;20471;49.680;20.074;2023-03-23T00:08:46;96835.46;;;8.38;65.40
34205;BME280;20471;49.680;20.074;2023-03-23T00:11:17;96836.05;;;8.38;65.51
34205;BME280;20471;49.680;20.074;2023-03-23T00:13:47;96835.63;;;8.37;65.45
34205;BME280;20471;49.680;20.074;2023-03-23T00:16:18;96837.08;;;8.36;65.40
34205;BME280;20471;49.680;20.074;2023-03-23T00:18:56;96834.33;;;8.34;65.45
34205;BME280;20471;49.680;20.074;2023-03-23T00:21:26;96838.12;;;8.28;65.43
34205;BME280;20471;49.680;20.074;2023-03-23T00:24:04;96839.17;;;8.20;65.51
34205;BME280;20471;49.680;20.074;2023-03-23T00:26:34;96837.55;;;8.13;65.72
34205;BME280;20471;49.680;20.074;2023-03-23T00:29:07;96837.98;;;8.06;65.68
34205;BME280;20471;49.680;20.074;2023-03-23T00:31:36;96836.84;;;8.02;65.76
34205;BME280;20471;49.680;20.074;2023-03-23T00:34:04;96835.98;;;7.96;65.95
34205;BME280;20471;49.680;20.074;2023-03-23T00:36:33;96832.85;;;7.92;65.93
34205;BME280;20471;49.680;20.074;2023-03-23T00:39:02;96832.02;;;7.85;66.00
34205;BME280;20471;49.680;20.074;2023-03-23T00:41:30;96833.19;;;7.75;66.03
34205;BME280;20471;49.680;20.074;2023-03-23T00:43:59;96830.38;;;7.68;66.29
34205;BME280;20471;49.680;20.074;2023-03-23T00:46:28;96826.69;;;7.63;66.35
34205;BME280;20471;49.680;20.074;2023-03-23T00:48:56;96827.12;;;7.60;66.53
34205;BME280;20471;49.680;20.074;2023-03-23T00:51:24;96818.08;;;7.58;66.61
34205;BME280;20471;49.680;20.074;2023-03-23T00:53:52;96820.26;;;7.54;66.56
34205;BME280;20471;49.680;20.074;2023-03-23T00:56:20;96821.65;;;7.49;66.82
34205;BME280;20471;49.680;20.074;2023-03-23T00:58:50;96812.56;;;7.42;67.00
34205;BME280;20471;49.680;20.074;2023-03-23T01:01:18;96812.88;;;7.38;67.09
34205;BME280;20471;49.680;20.074;2023-03-23T01:03:46;96810.58;;;7.34;67.02
34205;BME280;20471;49.680;20.074;2023-03-23T01:06:14;96809.91;;;7.30;67.23
34205;BME280;20471;49.680;20.074;2023-03-23T01:08:42;96810.77;;;7.29;67.43
34205;BME280;20471;49.680;20.074;2023-03-23T01:11:13;96805.52;;;7.25;67.29
34205;BME280;20471;49.680;20.074;2023-03-23T01:13:42;96802.52;;;7.18;67.43
34205;BME280;20471;49.680;20.074;2023-03-23T01:16:10;96799.52;;;7.14;67.54
34205;BME280;20471;49.680;20.074;2023-03-23T01:18:39;96798.56;;;7.05;67.56
34205;BME280;20471;49.680;20.074;2023-03-23T01:21:10;96800.73;;;6.96;67.65
34205;BME280;20471;49.680;20.074;2023-03-23T01:23:38;96797.41;;;6.88;67.93
34205;BME280;20471;49.680;20.074;2023-03-23T01:26:08;96797.41;;;6.84;68.12
34205;BME280;20471;49.680;20.074;2023-03-23T01:28:37;96799.27;;;6.82;68.21
34205;BME280;20471;49.680;20.074;2023-03-23T01:31:06;96801.64;;;6.79;68.27
34205;BME280;20471;49.680;20.074;2023-03-23T01:33:35;96796.02;;;6.72;68.33
34205;BME280;20471;49.680;20.074;2023-03-23T01:36:04;96797.42;;;6.66;68.48
34205;BME280;20471;49.680;20.074;2023-03-23T01:38:32;96794.63;;;6.66;68.65
34205;BME280;20471;49.680;20.074;2023-03-23T01:41:01;96800.83;;;6.68;68.71
34205;BME280;20471;49.680;20.074;2023-03-23T01:43:29;96800.16;;;6.68;68.60
34205;BME280;20471;49.680;20.074;2023-03-23T01:45:58;96796.45;;;6.63;68.69
34205;BME280;20471;49.680;20.074;2023-03-23T01:50:58;96798.98;;;6.58;68.71
34205;BME280;20471;49.680;20.074;2023-03-23T01:53:30;96797.09;;;6.54;68.78
34205;BME280;20471;49.680;20.074;2023-03-23T01:56:04;96799.08;;;6.53;68.99
34205;BME280;20471;49.680;20.074;2023-03-23T01:58:33;96793.59;;;6.50;69.08
34205;BME280;20471;49.680;20.074;2023-03-23T02:01:04;96793.09;;;6.48;69.09
34205;BME280;20471;49.680;20.074;2023-03-23T02:03:32;96794.55;;;6.45;69.28
34205;BME280;20471;49.680;20.074;2023-03-23T02:06:02;96793.94;;;6.44;69.30
34205;BME280;20471;49.680;20.074;2023-03-23T02:08:31;96794.47;;;6.46;69.38
34205;BME280;20471;49.680;20.074;2023-03-23T02:11:00;96788.43;;;6.44;69.52
34205;BME280;20471;49.680;20.074;2023-03-23T02:13:28;96791.40;;;6.43;69.54
34205;BME280;20471;49.680;20.074;2023-03-23T02:29:12;96797.13;;;6.38;69.68
34205;BME280;20471;49.680;20.074;2023-03-23T02:40:06;96800.10;;;6.22;70.05
34205;BME280;20471;49.680;20.074;2023-03-23T02:42:38;96798.30;;;6.17;70.19
34205;BME280;20471;49.680;20.074;2023-03-23T02:45:08;96799.73;;;6.13;70.29
34205;BME280;20471;49.680;20.074;2023-03-23T02:47:37;96796.01;;;6.10;70.25
34205;BME280;20471;49.680;20.074;2023-03-23T02:50:07;96797.66;;;6.07;70.40
34205;BME280;20471;49.680;20.074;2023-03-23T02:52:36;96800.95;;;6.07;70.42
34205;BME280;20471;49.680;20.074;2023-03-23T02:55:05;96806.99;;;6.08;70.35
34205;BME280;20471;49.680;20.074;2023-03-23T02:57:38;96806.25;;;6.09;70.32
34205;BME280;20471;49.680;20.074;2023-03-23T03:00:07;96803.69;;;6.08;70.26
34205;BME280;20471;49.680;20.074;2023-03-23T03:02:38;96803.31;;;6.07;70.22
34205;BME280;20471;49.680;20.074;2023-03-23T03:08:13;96798.40;;;6.02;70.30
34205;BME280;20471;49.680;20.074;2023-03-23T03:21:36;96792.18;;;5.93;70.76
34205;BME280;20471;49.680;20.074;2023-03-23T03:24:05;96791.48;;;5.93;70.75
34205;BME280;20471;49.680;20.074;2023-03-23T03:26:40;96791.56;;;5.90;70.79
34205;BME280;20471;49.680;20.074;2023-03-23T03:29:11;96784.59;;;5.89;71.10
34205;BME280;20471;49.680;20.074;2023-03-23T03:31:40;96779.66;;;5.94;71.28
34205;BME280;20471;49.680;20.074;2023-03-23T03:34:12;96780.45;;;6.00;71.40
34205;BME280;20471;49.680;20.074;2023-03-23T03:36:44;96782.70;;;6.04;71.40
34205;BME280;20471;49.680;20.074;2023-03-23T03:39:14;96782.23;;;6.06;71.25
34205;BME280;20471;49.680;20.074;2023-03-23T03:41:43;96776.03;;;6.08;71.36
34205;BME280;20471;49.680;20.074;2023-03-23T03:44:12;96770.47;;;6.08;71.34
34205;BME280;20471;49.680;20.074;2023-03-23T03:46:40;96772.54;;;6.10;71.54
34205;BME280;20471;49.680;20.074;2023-03-23T03:49:08;96771.31;;;6.11;71.40
34205;BME280;20471;49.680;20.074;2023-03-23T03:51:37;96771.79;;;6.09;71.43
34205;BME280;20471;49.680;20.074;2023-03-23T03:54:05;96773.92;;;6.08;71.45
34205;BME280;20471;49.680;20.074;2023-03-23T03:56:33;96766.41;;;6.12;71.42
34205;BME280;20471;49.680;20.074;2023-03-23T03:59:02;96767.21;;;6.14;71.50
34205;BME280;20471;49.680;20.074;2023-03-23T04:01:30;96764.32;;;6.13;71.41
34205;BME280;20471;49.680;20.074;2023-03-23T04:03:58;96762.98;;;6.09;71.42
34205;BME280;20471;49.680;20.074;2023-03-23T04:06:26;96762.58;;;6.04;71.51
34205;BME280;20471;49.680;20.074;2023-03-23T04:08:56;96761.29;;;6.00;71.66
34205;BME280;20471;49.680;20.074;2023-03-23T04:11:25;96757.78;;;6.00;71.70
34205;BME280;20471;49.680;20.074;2023-03-23T04:13:53;96756.02;;;5.97;71.73
34205;BME280;20471;49.680;20.074;2023-03-23T04:16:21;96761.02;;;5.97;71.81
34205;BME280;20471;49.680;20.074;2023-03-23T04:18:49;96757.68;;;5.98;71.85
34205;BME280;20471;49.680;20.074;2023-03-23T04:21:17;96759.67;;;5.95;71.91
34205;BME280;20471;49.680;20.074;2023-03-23T04:23:45;96758.67;;;5.93;71.87
34205;BME280;20471;49.680;20.074;2023-03-23T04:26:13;96761.07;;;5.94;72.00
34205;BME280;20471;49.680;20.074;2023-03-23T04:28:42;96760.22;;;5.96;72.02
34205;BME280;20471;49.680;20.074;2023-03-23T04:31:10;96757.63;;;5.95;71.93
34205;BME280;20471;49.680;20.074;2023-03-23T04:33:39;96755.50;;;5.94;72.06
34205;BME280;20471;49.680;20.074;2023-03-23T04:36:07;96755.35;;;5.95;72.13
34205;BME280;20471;49.680;20.074;2023-03-23T04:38:35;96754.27;;;5.98;72.23
34205;BME280;20471;49.680;20.074;2023-03-23T04:41:03;96755.09;;;5.98;72.07
34205;BME280;20471;49.680;20.074;2023-03-23T04:43:31;96759.98;;;5.97;72.17
34205;BME280;20471;49.680;20.074;2023-03-23T04:46:08;96759.39;;;5.93;72.09
34205;BME280;20471;49.680;20.074;2023-03-23T04:48:36;96760.17;;;5.91;72.31
34205;BME280;20471;49.680;20.074;2023-03-23T04:51:06;96763.64;;;5.91;72.43
34205;BME280;20471;49.680;20.074;2023-03-23T04:53:34;96766.06;;;5.91;72.39
34205;BME280;20471;49.680;20.074;2023-03-23T04:56:02;96763.88;;;5.95;72.53
34205;BME280;20471;49.680;20.074;2023-03-23T04:58:30;96764.52;;;6.04;72.74
34205;BME280;20471;49.680;20.074;2023-03-23T05:01:00;96759.98;;;6.16;72.85
34205;BME280;20471;49.680;20.074;2023-03-23T05:03:28;96761.03;;;6.26;72.86
34205;BME280;20471;49.680;20.074;2023-03-23T05:05:57;96760.42;;;6.37;72.93
34205;BME280;20471;49.680;20.074;2023-03-23T05:08:25;96762.27;;;6.47;72.88
34205;BME280;20471;49.680;20.074;2023-03-23T05:10:54;96763.70;;;6.57;72.81
34205;BME280;20471;49.680;20.074;2023-03-23T05:13:22;96758.78;;;6.68;72.69
34205;BME280;20471;49.680;20.074;2023-03-23T05:15:51;96760.92;;;6.83;72.57
34205;BME280;20471;49.680;20.074;2023-03-23T05:18:19;96760.70;;;6.96;72.36
34205;BME280;20471;49.680;20.074;2023-03-23T05:20:47;96766.19;;;7.05;72.26
34205;BME280;20471;49.680;20.074;2023-03-23T05:23:15;96774.05;;;7.14;72.13
34205;BME280;20471;49.680;20.074;2023-03-23T05:25:43;96773.19;;;7.25;72.00
34205;BME280;20471;49.680;20.074;2023-03-23T05:28:13;96769.40;;;7.34;71.91
34205;BME280;20471;49.680;20.074;2023-03-23T05:30:41;96764.48;;;7.43;71.68
34205;BME280;20471;49.680;20.074;2023-03-23T05:33:10;96763.07;;;7.52;71.57
34205;BME280;20471;49.680;20.074;2023-03-23T05:35:38;96766.25;;;7.60;71.43
34205;BME280;20471;49.680;20.074;2023-03-23T05:38:06;96776.52;;;7.70;71.27
34205;BME280;20471;49.680;20.074;2023-03-23T05:40:34;96769.57;;;7.79;71.12
34205;BME280;20471;49.680;20.074;2023-03-23T05:43:02;96765.34;;;7.86;71.04
34205;BME280;20471;49.680;20.074;2023-03-23T05:45:30;96770.95;;;7.94;70.97
34205;BME280;20471;49.680;20.074;2023-03-23T05:47:58;96770.17;;;8.02;70.81
34205;BME280;20471;49.680;20.074;2023-03-23T05:50:26;96771.70;;;8.09;70.80
34205;BME280;20471;49.680;20.074;2023-03-23T05:52:54;96773.98;;;8.17;70.62
34205;BME280;20471;49.680;20.074;2023-03-23T05:55:23;96773.38;;;8.25;70.68
34205;BME280;20471;49.680;20.074;2023-03-23T05:57:51;96769.29;;;8.33;70.46
34205;BME280;20471;49.680;20.074;2023-03-23T06:00:20;96775.14;;;8.41;70.31
34205;BME280;20471;49.680;20.074;2023-03-23T06:02:49;96776.75;;;8.51;70.17
34205;BME280;20471;49.680;20.074;2023-03-23T06:05:18;96777.99;;;8.60;69.83
34205;BME280;20471;49.680;20.074;2023-03-23T06:07:46;96770.80;;;8.68;69.82
34205;BME280;20471;49.680;20.074;2023-03-23T06:10:14;96767.36;;;8.76;69.60
34205;BME280;20471;49.680;20.074;2023-03-23T06:12:43;96760.64;;;8.83;69.44
34205;BME280;20471;49.680;20.074;2023-03-23T06:15:11;96757.00;;;8.91;69.35
34205;BME280;20471;49.680;20.074;2023-03-23T06:17:39;96757.94;;;8.99;69.18
34205;BME280;20471;49.680;20.074;2023-03-23T06:20:07;96759.92;;;9.08;68.85
34205;BME280;20471;49.680;20.074;2023-03-23T06:22:37;96764.36;;;9.17;68.63
34205;BME280;20471;49.680;20.074;2023-03-23T06:25:06;96765.83;;;9.27;68.26
34205;BME280;20471;49.680;20.074;2023-03-23T06:27:35;96760.17;;;9.35;67.96
34205;BME280;20471;49.680;20.074;2023-03-23T06:30:03;96757.99;;;9.43;67.71
34205;BME280;20471;49.680;20.074;2023-03-23T06:32:32;96758.06;;;9.51;67.51
34205;BME280;20471;49.680;20.074;2023-03-23T06:35:01;96759.89;;;9.59;67.28
34205;BME280;20471;49.680;20.074;2023-03-23T06:37:30;96757.77;;;9.67;67.19
34205;BME280;20471;49.680;20.074;2023-03-23T06:39:58;96763.71;;;9.76;66.96
34205;BME280;20471;49.680;20.074;2023-03-23T06:42:27;96762.56;;;9.85;66.91
34205;BME280;20471;49.680;20.074;2023-03-23T06:44:55;96758.70;;;9.92;66.65
34205;BME280;20471;49.680;20.074;2023-03-23T06:47:24;96760.33;;;10.01;66.39
34205;BME280;20471;49.680;20.074;2023-03-23T06:49:52;96767.31;;;10.11;66.28
34205;BME280;20471;49.680;20.074;2023-03-23T06:52:20;96772.74;;;10.20;66.03
34205;BME280;20471;49.680;20.074;2023-03-23T06:54:49;96768.21;;;10.29;65.82
34205;BME280;20471;49.680;20.074;2023-03-23T06:57:18;96763.86;;;10.39;65.59
34205;BME280;20471;49.680;20.074;2023-03-23T06:59:46;96763.58;;;10.50;65.32
34205;BME280;20471;49.680;20.074;2023-03-23T07:02:14;96760.84;;;10.63;65.34
34205;BME280;20471;49.680;20.074;2023-03-23T07:04:42;96759.86;;;10.81;65.08
34205;BME280;20471;49.680;20.074;2023-03-23T07:07:11;96758.42;;;11.00;64.91
34205;BME280;20471;49.680;20.074;2023-03-23T07:09:40;96762.92;;;11.19;64.62
34205;BME280;20471;49.680;20.074;2023-03-23T07:12:09;96764.15;;;11.37;64.40
34205;BME280;20471;49.680;20.074;2023-03-23T07:14:37;96762.96;;;11.56;64.22
34205;BME280;20471;49.680;20.074;2023-03-23T07:17:05;96766.02;;;11.73;63.97
34205;BME280;20471;49.680;20.074;2023-03-23T07:19:34;96764.40;;;11.86;63.63
34205;BME280;20471;49.680;20.074;2023-03-23T07:22:04;96763.46;;;11.99;63.23
34205;BME280;20471;49.680;20.074;2023-03-23T07:24:32;96764.91;;;12.10;63.03
34205;BME280;20471;49.680;20.074;2023-03-23T07:27:00;96769.09;;;12.23;62.63
34205;BME280;20471;49.680;20.074;2023-03-23T07:29:29;96776.75;;;12.37;62.37
34205;BME280;20471;49.680;20.074;2023-03-23T07:31:57;96777.39;;;12.48;62.01
34205;BME280;20471;49.680;20.074;2023-03-23T07:34:25;96771.59;;;12.59;61.76
34205;BME280;20471;49.680;20.074;2023-03-23T07:36:53;96767.23;;;12.71;61.53
34205;BME280;20471;49.680;20.074;2023-03-23T07:39:22;96769.34;;;12.81;61.17
34205;BME280;20471;49.680;20.074;2023-03-23T07:41:50;96770.07;;;12.94;61.00
34205;BME280;20471;49.680;20.074;2023-03-23T07:44:18;96762.57;;;13.09;60.73
34205;BME280;20471;49.680;20.074;2023-03-23T07:46:47;96763.71;;;13.29;60.53
34205;BME280;20471;49.680;20.074;2023-03-23T07:49:15;96765.64;;;13.49;60.18
34205;BME280;20471;49.680;20.074;2023-03-23T07:51:44;96765.14;;;13.62;59.83
34205;BME280;20471;49.680;20.074;2023-03-23T07:54:12;96763.08;;;13.82;59.48
34205;BME280;20471;49.680;20.074;2023-03-23T07:56:41;96761.58;;;14.00;59.01
34205;BME280;20471;49.680;20.074;2023-03-23T07:59:12;96755.85;;;14.17;58.64
34205;BME280;20471;49.680;20.074;2023-03-23T08:01:40;96750.79;;;14.28;58.30
34205;BME280;20471;49.680;20.074;2023-03-23T08:04:08;96744.16;;;14.35;57.93
34205;BME280;20471;49.680;20.074;2023-03-23T08:06:36;96737.58;;;14.41;57.80
34205;BME280;20471;49.680;20.074;2023-03-23T08:09:06;96740.88;;;14.46;57.64
34205;BME280;20471;49.680;20.074;2023-03-23T08:11:35;96735.98;;;14.51;57.07
34205;BME280;20471;49.680;20.074;2023-03-23T08:14:04;96738.33;;;14.56;56.96
34205;BME280;20471;49.680;20.074;2023-03-23T08:16:32;96738.33;;;14.65;56.69
34205;BME280;20471;49.680;20.074;2023-03-23T08:19:00;96737.93;;;14.72;56.52
34205;BME280;20471;49.680;20.074;2023-03-23T08:21:29;96743.48;;;14.83;56.45
34205;BME280;20471;49.680;20.074;2023-03-23T08:23:57;96739.95;;;14.97;56.34
34205;BME280;20471;49.680;20.074;2023-03-23T08:26:25;96735.11;;;15.18;55.87
34205;BME280;20471;49.680;20.074;2023-03-23T08:28:53;96739.98;;;15.42;55.67
34205;BME280;20471;49.680;20.074;2023-03-23T08:31:21;96737.09;;;15.59;54.93
34205;BME280;20471;49.680;20.074;2023-03-23T08:33:49;96742.55;;;15.72;54.13
34205;BME280;20471;49.680;20.074;2023-03-23T08:36:18;96744.00;;;15.90;53.66
34205;BME280;20471;49.680;20.074;2023-03-23T08:38:46;96745.88;;;16.04;53.01
34205;BME280;20471;49.680;20.074;2023-03-23T08:41:14;96751.45;;;16.14;52.55
34205;BME280;20471;49.680;20.074;2023-03-23T08:43:42;96754.05;;;16.29;52.23
34205;BME280;20471;49.680;20.074;2023-03-23T08:46:11;96751.98;;;16.50;51.98
34205;BME280;20471;49.680;20.074;2023-03-23T08:48:39;96748.73;;;16.71;51.68
34205;BME280;20471;49.680;20.074;2023-03-23T08:51:07;96747.27;;;16.82;51.33
34205;BME280;20471;49.680;20.074;2023-03-23T08:53:36;96748.25;;;16.82;50.95
34205;BME280;20471;49.680;20.074;2023-03-23T08:56:04;96746.91;;;16.77;50.79
34205;BME280;20471;49.680;20.074;2023-03-23T08:58:37;96744.39;;;16.70;50.61
34205;BME280;20471;49.680;20.074;2023-03-23T09:01:05;96743.92;;;16.65;50.60
34205;BME280;20471;49.680;20.074;2023-03-23T09:03:34;96746.98;;;16.60;50.61
34205;BME280;20471;49.680;20.074;2023-03-23T09:06:03;96749.08;;;16.53;50.48
34205;BME280;20471;49.680;20.074;2023-03-23T09:08:32;96749.41;;;16.46;50.40
34205;BME280;20471;49.680;20.074;2023-03-23T09:11:02;96747.20;;;16.42;50.43
34205;BME280;20471;49.680;20.074;2023-03-23T09:13:31;96747.41;;;16.39;50.34
34205;BME280;20471;49.680;20.074;2023-03-23T09:15:59;96747.81;;;16.34;50.10
34205;BME280;20471;49.680;20.074;2023-03-23T09:18:27;96751.66;;;16.30;50.17
34205;BME280;20471;49.680;20.074;2023-03-23T09:20:55;96757.66;;;16.32;50.29
34205;BME280;20471;49.680;20.074;2023-03-23T09:23:23;96753.48;;;16.34;50.15
34205;BME280;20471;49.680;20.074;2023-03-23T09:25:52;96753.14;;;16.39;49.95
34205;BME280;20471;49.680;20.074;2023-03-23T09:28:20;96751.58;;;16.45;49.61
34205;BME280;20471;49.680;20.074;2023-03-23T09:30:48;96750.84;;;16.49;49.43
34205;BME280;20471;49.680;20.074;2023-03-23T09:33:18;96745.93;;;16.47;49.17
34205;BME280;20471;49.680;20.074;2023-03-23T09:35:46;96749.36;;;16.48;48.93
34205;BME280;20471;49.680;20.074;2023-03-23T09:38:14;96742.15;;;16.45;48.58
34205;BME280;20471;49.680;20.074;2023-03-23T09:40:46;96742.37;;;16.45;48.43
34205;BME280;20471;49.680;20.074;2023-03-23T09:48:45;96747.44;;;16.54;47.89
34205;BME280;20471;49.680;20.074;2023-03-23T09:53:50;96739.85;;;16.50;47.72
34205;BME280;20471;49.680;20.074;2023-03-23T09:56:19;96742.39;;;16.48;47.40
34205;BME280;20471;49.680;20.074;2023-03-23T10:01:31;96723.63;;;16.56;47.30
34205;BME280;20471;49.680;20.074;2023-03-23T10:04:05;96718.32;;;16.70;47.41
34205;BME280;20471;49.680;20.074;2023-03-23T10:06:34;96713.81;;;16.88;47.50
34205;BME280;20471;49.680;20.074;2023-03-23T10:09:03;96706.13;;;17.09;47.08
34205;BME280;20471;49.680;20.074;2023-03-23T10:16:49;96715.71;;;17.39;46.11
34205;BME280;20471;49.680;20.074;2023-03-23T10:22:03;96704.45;;;17.96;45.56
34205;BME280;20471;49.680;20.074;2023-03-23T10:24:36;96701.90;;;18.17;45.13
34205;BME280;20471;49.680;20.074;2023-03-23T10:30:18;96697.98;;;18.25;44.44
34205;BME280;20471;49.680;20.074;2023-03-23T10:32:50;96698.89;;;18.17;44.33
34205;BME280;20471;49.680;20.074;2023-03-23T10:35:23;96706.02;;;18.00;43.77
34205;BME280;20471;49.680;20.074;2023-03-23T10:37:54;96711.01;;;17.88;43.66
34205;BME280;20471;49.680;20.074;2023-03-23T10:40:26;96710.89;;;17.79;43.70
34205;BME280;20471;49.680;20.074;2023-03-23T10:42:56;96709.38;;;17.72;43.76
34205;BME280;20471;49.680;20.074;2023-03-23T10:45:26;96707.74;;;17.80;43.79
34205;BME280;20471;49.680;20.074;2023-03-23T10:47:56;96711.36;;;18.07;43.54
34205;BME280;20471;49.680;20.074;2023-03-23T10:50:28;96707.23;;;18.45;43.29
34205;BME280;20471;49.680;20.074;2023-03-23T10:52:58;96704.20;;;18.86;42.87
34205;BME280;20471;49.680;20.074;2023-03-23T10:55:37;96704.95;;;19.24;42.10
34205;BME280;20471;49.680;20.074;2023-03-23T10:58:08;96700.96;;;19.52;41.36
34205;BME280;20471;49.680;20.074;2023-03-23T11:00:41;96697.56;;;19.80;40.77
34205;BME280;20471;49.680;20.074;2023-03-23T11:05:49;96691.96;;;20.49;40.49
34205;BME280;20471;49.680;20.074;2023-03-23T11:08:21;96695.91;;;20.77;39.35
34205;BME280;20471;49.680;20.074;2023-03-23T11:10:52;96685.67;;;20.87;38.85
34205;BME280;20471;49.680;20.074;2023-03-23T11:13:21;96680.00;;;21.02;38.80
34205;BME280;20471;49.680;20.074;2023-03-23T11:15:53;96663.81;;;21.13;38.20
34205;BME280;20471;49.680;20.074;2023-03-23T11:18:22;96659.85;;;21.17;37.16
34205;BME280;20471;49.680;20.074;2023-03-23T11:20:55;96661.51;;;21.18;37.18
34205;BME280;20471;49.680;20.074;2023-03-23T11:23:26;96670.17;;;21.14;37.03
34205;BME280;20471;49.680;20.074;2023-03-23T11:28:33;96675.08;;;20.67;36.16
34205;BME280;20471;49.680;20.074;2023-03-23T11:31:03;96678.08;;;20.24;36.30
34205;BME280;20471;49.680;20.074;2023-03-23T11:33:36;96680.66;;;19.95;36.95
34205;BME280;20471;49.680;20.074;2023-03-23T11:36:06;96677.98;;;19.72;37.29
34205;BME280;20471;49.680;20.074;2023-03-23T11:38:36;96678.39;;;19.57;37.56
34205;BME280;20471;49.680;20.074;2023-03-23T11:41:08;96676.60;;;19.61;38.36
34205;BME280;20471;49.680;20.074;2023-03-23T11:43:40;96671.02;;;19.85;38.49
34205;BME280;20471;49.680;20.074;2023-03-23T11:46:18;96674.15;;;20.11;38.14
34205;BME280;20471;49.680;20.074;2023-03-23T11:48:54;96664.13;;;20.38;38.13
34205;BME280;20471;49.680;20.074;2023-03-23T11:51:38;96653.36;;;20.63;37.87
34205;BME280;20471;49.680;20.074;2023-03-23T11:56:45;96637.95;;;21.19;37.03
34205;BME280;20471;49.680;20.074;2023-03-23T11:59:25;96638.14;;;21.39;37.15
34205;BME280;20471;49.680;20.074;2023-03-23T12:01:56;96646.42;;;21.54;36.83
34205;BME280;20471;49.680;20.074;2023-03-23T12:10:10;96629.70;;;21.93;35.54
34205;BME280;20471;49.680;20.074;2023-03-23T12:13:05;96627.98;;;22.16;35.32
34205;BME280;20471;49.680;20.074;2023-03-23T12:18:20;96619.56;;;22.46;34.77
34205;BME280;20471;49.680;20.074;2023-03-23T12:21:11;96620.84;;;22.54;34.41
34205;BME280;20471;49.680;20.074;2023-03-23T12:26:31;96613.77;;;22.97;34.34
34205;BME280;20471;49.680;20.074;2023-03-23T12:29:04;96608.96;;;23.00;34.13
34205;BME280;20471;49.680;20.074;2023-03-23T12:36:56;96595.33;;;22.46;33.94
34205;BME280;20471;49.680;20.074;2023-03-23T12:42:18;96605.75;;;22.76;33.88
34205;BME280;20471;49.680;20.074;2023-03-23T12:44:53;96597.33;;;22.97;33.18
34205;BME280;20471;49.680;20.074;2023-03-23T12:47:33;96591.73;;;23.17;32.89
34205;BME280;20471;49.680;20.074;2023-03-23T12:52:41;96592.14;;;23.41;32.51
34205;BME280;20471;49.680;20.074;2023-03-23T12:57:43;96593.42;;;23.69;31.91
34205;BME280;20471;49.680;20.074;2023-03-23T13:00:22;96590.66;;;23.72;31.68
34205;BME280;20471;49.680;20.074;2023-03-23T13:02:54;96586.92;;;23.78;31.56
34205;BME280;20471;49.680;20.074;2023-03-23T13:07:53;96582.36;;;23.90;31.56
34205;BME280;20471;49.680;20.074;2023-03-23T13:10:24;96581.15;;;24.04;31.47
34205;BME280;20471;49.680;20.074;2023-03-23T13:12:54;96577.98;;;24.05;31.49
34205;BME280;20471;49.680;20.074;2023-03-23T13:18:09;96578.38;;;23.92;31.40
34205;BME280;20471;49.680;20.074;2023-03-23T13:23:14;96575.95;;;23.34;31.29
34205;BME280;20471;49.680;20.074;2023-03-23T13:25:48;96569.50;;;22.93;31.33
34205;BME280;20471;49.680;20.074;2023-03-23T13:28:18;96570.02;;;22.56;31.63
34205;BME280;20471;49.680;20.074;2023-03-23T13:30:55;96567.70;;;22.31;32.00
34205;BME280;20471;49.680;20.074;2023-03-23T13:33:24;96562.18;;;22.08;32.24
34205;BME280;20471;49.680;20.074;2023-03-23T13:35:52;96567.48;;;21.85;32.51
34205;BME280;20471;49.680;20.074;2023-03-23T13:38:23;96570.54;;;21.65;32.59
34205;BME280;20471;49.680;20.074;2023-03-23T13:40:52;96565.73;;;21.43;32.64
34205;BME280;20471;49.680;20.074;2023-03-23T13:43:28;96563.70;;;21.21;32.77
34205;BME280;20471;49.680;20.074;2023-03-23T13:48:51;96571.73;;;20.88;33.19
34205;BME280;20471;49.680;20.074;2023-03-23T13:51:47;96573.38;;;20.80;33.42
34205;BME280;20471;49.680;20.074;2023-03-23T13:56:54;96564.08;;;20.52;33.46
34205;BME280;20471;49.680;20.074;2023-03-23T14:01:54;96571.35;;;20.30;33.78
34205;BME280;20471;49.680;20.074;2023-03-23T14:04:29;96570.83;;;20.19;33.74
34205;BME280;20471;49.680;20.074;2023-03-23T14:07:08;96571.35;;;20.13;34.10
34205;BME280;20471;49.680;20.074;2023-03-23T14:09:38;96559.44;;;20.09;34.20
34205;BME280;20471;49.680;20.074;2023-03-23T14:15:02;96565.26;;;20.08;34.20
34205;BME280;20471;49.680;20.074;2023-03-23T14:17:40;96567.67;;;20.07;34.41
34205;BME280;20471;49.680;20.074;2023-03-23T14:20:16;96569.46;;;20.05;34.57
34205;BME280;20471;49.680;20.074;2023-03-23T14:22:47;96566.81;;;20.02;34.60
34205;BME280;20471;49.680;20.074;2023-03-23T14:25:21;96561.09;;;20.00;34.82
34205;BME280;20471;49.680;20.074;2023-03-23T14:27:51;96566.02;;;20.00;34.80
34205;BME280;20471;49.680;20.074;2023-03-23T14:30:21;96566.89;;;19.96;34.62
34205;BME280;20471;49.680;20.074;2023-03-23T14:32:49;96572.61;;;19.83;34.56
34205;BME280;20471;49.680;20.074;2023-03-23T14:37:52;96575.54;;;19.70;34.64
34205;BME280;20471;49.680;20.074;2023-03-23T14:40:20;96569.36;;;19.65;34.67
34205;BME280;20471;49.680;20.074;2023-03-23T14:42:49;96570.38;;;19.60;34.62
34205;BME280;20471;49.680;20.074;2023-03-23T14:45:21;96566.95;;;19.53;34.50
34205;BME280;20471;49.680;20.074;2023-03-23T14:47:50;96564.08;;;19.49;34.43
34205;BME280;20471;49.680;20.074;2023-03-23T14:50:41;96561.23;;;19.45;34.68
34205;BME280;20471;49.680;20.074;2023-03-23T14:53:16;96565.18;;;19.40;34.72
34205;BME280;20471;49.680;20.074;2023-03-23T14:55:46;96568.06;;;19.31;34.61
34205;BME280;20471;49.680;20.074;2023-03-23T14:58:16;96567.64;;;19.29;34.74
34205;BME280;20471;49.680;20.074;2023-03-23T15:00:52;96567.38;;;19.28;34.86
34205;BME280;20471;49.680;20.074;2023-03-23T15:03:22;96568.20;;;19.29;34.96